Time;durP1;ratioP1;P1;durP2;ratioP2;P2;SDS_P1;SDS_P2;PMS_P1;PMS_P2;Temp;Humidity;BMP_temperature;BMP_pressure;BME280_temperature;BME280_humidity;BME280_pressure;Samples;Min_cycle;Max_cycle;Signal;HPM_P1;HPM_P2
2022/10/25 00:00:03;;;;;;;9.80;1.40;;;11.20;56.80;;;;;;7341989;19;20018;-66
2022/10/25 00:02:35;;;;;;;2.65;1.20;;;11.20;56.80;;;;;;7372555;19;20026;-66
2022/10/25 00:05:06;;;;;;;3.47;1.48;;;11.30;56.20;;;;;;7353151;19;20022;-67
2022/10/25 00:07:36;;;;;;;4.40;1.17;;;11.20;55.70;;;;;;7356838;19;20035;-67
2022/10/25 00:10:09;;;;;;;2.90;1.27;;;11.20;55.70;;;;;;7354229;19;20017;-66
2022/10/25 00:12:44;;;;;;;4.10;1.20;;;11.30;55.70;;;;;;7362325;19;20010;-65
2022/10/25 00:15:14;;;;;;;;;;;11.20;55.50;;;;;;7358811;19;20026;-66
2022/10/25 00:17:46;;;;;;;3.92;1.63;;;11.20;55.20;;;;;;7372873;19;19919;-67
2022/10/25 00:20:16;;;;;;;3.28;1.40;;;11.20;55.50;;;;;;7376929;19;20010;-66
2022/10/25 00:22:46;;;;;;;5.90;1.80;;;11.20;54.60;;;;;;7363727;19;20013;-67
2022/10/25 00:25:19;;;;;;;3.45;1.20;;;11.20;54.70;;;;;;7356350;19;20014;-67
2022/10/25 00:27:49;;;;;;;4.40;1.73;;;11.20;55.80;;;;;;7356031;19;20021;-65
2022/10/25 00:30:19;;;;;;;3.88;1.80;;;11.20;56.20;;;;;;7352062;19;20494;-66
2022/10/25 00:32:51;;;;;;;3.42;1.40;;;11.10;56.70;;;;;;7362060;19;20336;-66
2022/10/25 00:35:21;;;;;;;1.88;1.35;;;11.10;56.90;;;;;;7375859;19;20014;-66
2022/10/25 00:37:52;;;;;;;1.98;1.40;;;11.10;57.30;;;;;;7352225;19;20014;-65
2022/10/25 00:40:24;;;;;;;5.00;1.88;;;11.10;57.80;;;;;;7354816;19;20013;-66
2022/10/25 00:42:54;;;;;;;3.03;1.58;;;11.10;58.00;;;;;;7362341;19;20042;-67
2022/10/25 00:45:25;;;;;;;5.40;1.67;;;11.10;58.30;;;;;;7358055;19;20022;-66
2022/10/25 00:48:02;;;;;;;3.33;1.77;;;11.10;58.30;;;;;;7355952;19;20049;-66
2022/10/25 00:50:41;;;;;;;2.92;1.50;;;11.10;58.30;;;;;;7377443;19;20796;-66
2022/10/25 00:53:15;;;;;;;6.40;2.00;;;11.10;58.40;;;;;;7360849;19;20034;-66
2022/10/25 00:55:51;;;;;;;6.20;1.83;;;11.10;58.50;;;;;;7358405;19;20759;-67
2022/10/25 00:58:25;;;;;;;3.92;1.70;;;11.10;58.50;;;;;;7357687;19;20006;-66
2022/10/25 01:00:55;;;;;;;3.70;1.88;;;11.10;58.40;;;;;;7355289;19;20007;-66
2022/10/25 01:03:26;;;;;;;3.47;1.60;;;11.00;58.40;;;;;;7360269;19;20006;-66
2022/10/25 01:05:56;;;;;;;4.32;1.83;;;11.00;58.50;;;;;;7357817;19;20490;-67
2022/10/25 01:08:26;;;;;;;3.95;2.13;;;11.10;58.80;;;;;;7376527;19;20025;-67
2022/10/25 01:10:59;;;;;;;3.15;1.63;;;11.00;58.30;;;;;;7356475;19;20011;-67
2022/10/25 01:13:28;;;;;;;3.25;1.80;;;11.00;58.30;;;;;;7367205;19;20018;-66
2022/10/25 01:16:12;;;;;;;4.18;2.00;;;11.00;58.20;;;;;;7364257;19;20849;-66
2022/10/25 01:18:48;;;;;;;6.32;1.92;;;11.00;58.40;;;;;;7361100;19;20018;-66
2022/10/25 01:21:41;;;;;;;4.18;1.90;;;11.00;58.40;;;;;;7362859;19;20010;-66
2022/10/25 01:24:37;;;;;;;5.40;2.10;;;11.00;58.40;;;;;;7367075;19;20498;-65
2022/10/25 01:27:31;;;;;;;6.47;2.33;;;11.00;58.30;;;;;;7365803;19;21626;-66
2022/10/25 01:30:14;;;;;;;4.88;2.10;;;11.00;58.30;;;;;;7357101;19;20042;-67
2022/10/25 01:32:55;;;;;;;2.88;1.98;;;11.00;58.30;;;;;;7391150;19;20026;-66
2022/10/25 01:35:29;;;;;;;5.50;2.40;;;11.00;58.30;;;;;;7364022;19;20730;-65
2022/10/25 01:38:22;;;;;;;2.70;1.90;;;11.00;57.90;;;;;;7360628;19;20347;-67
2022/10/25 01:40:59;;;;;;;3.78;1.85;;;11.00;57.80;;;;;;7357483;19;20010;-67
2022/10/25 01:43:37;;;;;;;5.15;2.00;;;11.00;58.20;;;;;;7367907;19;20010;-67
2022/10/25 01:46:17;;;;;;;4.28;1.80;;;11.00;58.10;;;;;;7363457;19;20010;-66
2022/10/25 01:48:51;;;;;;;4.13;2.17;;;11.00;58.10;;;;;;7360526;19;20019;-66
2022/10/25 01:51:21;;;;;;;;;;;11.00;58.10;;;;;;7363635;19;20008;-66
2022/10/25 01:53:52;;;;;;;5.53;2.20;;;11.00;57.50;;;;;;7366744;19;19911;-65
2022/10/25 01:56:28;;;;;;;3.65;1.70;;;11.00;57.20;;;;;;7385166;19;20489;-66
2022/10/25 01:59:17;;;;;;;6.18;1.95;;;11.00;57.50;;;;;;7359132;19;20010;-66
2022/10/25 02:02:02;;;;;;;4.30;2.30;;;11.00;57.20;;;;;;7367794;19;20415;-66
2022/10/25 02:04:41;;;;;;;;;;;11.00;56.90;;;;;;7365175;19;20010;-66
2022/10/25 02:07:17;;;;;;;3.45;2.08;;;11.10;56.70;;;;;;7363536;19;20379;-66
2022/10/25 02:09:57;;;;;;;6.63;2.50;;;11.00;56.60;;;;;;7355464;19;20020;-67
2022/10/25 02:12:34;;;;;;;6.35;2.40;;;11.00;56.80;;;;;;7367512;19;20006;-67
2022/10/25 02:15:10;;;;;;;4.43;2.20;;;11.00;57.00;;;;;;7362212;19;20011;-67
2022/10/25 02:17:45;;;;;;;7.13;2.38;;;11.00;56.90;;;;;;7381377;19;20022;-66
2022/10/25 02:20:20;;;;;;;6.35;2.38;;;11.00;56.80;;;;;;7356934;19;20017;-67
2022/10/25 02:22:51;;;;;;;3.90;2.10;;;11.00;57.30;;;;;;7364561;19;20015;-67
2022/10/25 02:25:23;;;;;;;3.58;1.92;;;11.00;57.70;;;;;;7363638;19;20013;-67
2022/10/25 02:27:55;;;;;;;4.63;2.10;;;11.00;57.60;;;;;;7360166;19;20007;-66
2022/10/25 02:30:25;;;;;;;5.05;2.20;;;11.00;57.90;;;;;;7355659;19;20006;-67
2022/10/25 02:32:55;;;;;;;7.05;2.55;;;11.10;58.00;;;;;;7366060;19;20014;-65
2022/10/25 02:35:27;;;;;;;7.72;2.47;;;11.10;57.50;;;;;;7384488;19;20014;-66
2022/10/25 02:37:57;;;;;;;9.50;2.35;;;11.10;57.20;;;;;;7359288;19;20010;-66
2022/10/25 02:40:27;;;;;;;4.57;2.33;;;11.10;57.00;;;;;;7355779;19;20010;-66
2022/10/25 02:42:57;;;;;;;3.03;2.25;;;11.10;56.60;;;;;;7363951;19;20014;-66
2022/10/25 02:45:26;;;;;;;3.92;2.38;;;11.00;56.30;;;;;;7362538;19;20010;-66
2022/10/25 02:47:56;;;;;;;7.68;2.40;;;11.00;56.60;;;;;;7359595;19;20458;-67
2022/10/25 02:50:28;;;;;;;3.60;2.35;;;11.00;56.60;;;;;;7378402;19;20087;-67
2022/10/25 02:52:58;;;;;;;10.43;2.20;;;11.00;57.00;;;;;;7365048;19;20011;-67
2022/10/25 02:55:28;;;;;;;8.23;2.40;;;11.00;57.20;;;;;;7360570;19;20037;-67
2022/10/25 02:58:00;;;;;;;6.25;2.40;;;11.00;57.10;;;;;;7360052;19;20521;-67
2022/10/25 03:00:34;;;;;;;6.32;2.50;;;11.00;57.50;;;;;;7355397;19;20011;-67
2022/10/25 03:03:03;;;;;;;6.43;2.47;;;10.90;57.60;;;;;;7365544;19;20038;-67
2022/10/25 03:05:36;;;;;;;8.77;2.80;;;11.00;58.10;;;;;;7382872;19;20034;-66
2022/10/25 03:08:06;;;;;;;5.57;2.53;;;11.00;58.20;;;;;;7356831;19;20459;-66
2022/10/25 03:10:38;;;;;;;8.20;3.55;;;11.00;58.30;;;;;;7355096;19;20010;-66
2022/10/25 03:13:08;;;;;;;6.80;3.05;;;11.00;58.30;;;;;;7364539;19;20038;-66
2022/10/25 03:15:38;;;;;;;7.03;3.10;;;10.90;58.30;;;;;;7361235;19;20017;-67
2022/10/25 03:18:07;;;;;;;4.13;3.05;;;10.90;58.30;;;;;;7359824;19;20527;-66
2022/10/25 03:20:41;;;;;;;9.32;3.40;;;10.90;58.40;;;;;;7375130;19;20006;-66
2022/10/25 03:23:11;;;;;;;7.40;3.00;;;10.90;58.80;;;;;;7363169;19;20010;-67
2022/10/25 03:25:41;;;;;;;3.20;2.80;;;11.00;58.50;;;;;;7359868;19;20017;-66
2022/10/25 03:28:11;;;;;;;7.00;3.10;;;10.90;58.30;;;;;;7359088;19;20009;-66
2022/10/25 03:30:44;;;;;;;7.25;2.70;;;10.90;58.40;;;;;;7354879;19;20363;-65
2022/10/25 03:33:14;;;;;;;7.07;3.00;;;10.90;58.50;;;;;;7362750;19;20024;-66
2022/10/25 03:35:50;;;;;;;3.72;2.53;;;10.90;58.70;;;;;;7382827;19;20018;-67
2022/10/25 03:38:20;;;;;;;4.70;2.47;;;10.90;58.90;;;;;;7360534;19;20363;-67
2022/10/25 03:40:51;;;;;;;11.57;2.83;;;10.80;59.00;;;;;;7353895;19;20011;-66
2022/10/25 03:43:21;;;;;;;7.28;2.78;;;10.80;59.10;;;;;;7361926;19;20013;-67
2022/10/25 03:45:51;;;;;;;8.23;3.08;;;10.90;59.30;;;;;;7360711;19;20568;-67
2022/10/25 03:48:21;;;;;;;15.68;3.58;;;10.80;59.10;;;;;;7359982;19;20013;-67
2022/10/25 03:50:55;;;;;;;6.63;3.63;;;10.90;59.40;;;;;;7352305;19;20367;-66
2022/10/25 03:53:24;;;;;;;5.30;2.80;;;10.90;59.10;;;;;;7385684;19;20139;-67
2022/10/25 03:55:54;;;;;;;6.18;2.92;;;10.90;59.20;;;;;;7359337;19;20007;-66
2022/10/25 03:58:24;;;;;;;9.55;2.78;;;11.00;59.10;;;;;;7359106;19;20017;-65
2022/10/25 04:00:54;;;;;;;5.25;2.63;;;11.00;58.50;;;;;;7353856;19;20010;-67
2022/10/25 04:03:23;;;;;;;9.32;2.63;;;11.00;58.30;;;;;;7362418;19;20077;-68
2022/10/25 04:05:56;;;;;;;5.63;2.50;;;11.00;58.30;;;;;;7359555;19;20022;-65
2022/10/25 04:08:26;;;;;;;6.30;2.47;;;11.00;58.30;;;;;;7379358;19;20014;-68
2022/10/25 04:10:55;;;;;;;9.48;3.00;;;10.90;58.30;;;;;;7353292;19;20081;-64
2022/10/25 04:13:25;;;;;;;5.68;2.72;;;11.00;58.30;;;;;;7362376;19;20010;-65
2022/10/25 04:15:55;;;;;;;4.68;2.63;;;10.90;58.10;;;;;;7359403;19;20364;-65
2022/10/25 04:18:25;;;;;;;4.85;2.88;;;10.90;58.20;;;;;;7358283;19;20003;-65
2022/10/25 04:20:59;;;;;;;5.85;2.92;;;10.90;58.20;;;;;;7351512;19;20022;-67
2022/10/25 04:23:30;;;;;;;6.95;2.97;;;10.90;58.20;;;;;;7383805;19;20014;-66
2022/10/25 04:25:59;;;;;;;6.90;2.78;;;10.90;58.30;;;;;;7358096;19;20015;-65
2022/10/25 04:28:29;;;;;;;7.60;2.90;;;10.90;58.20;;;;;;7357098;19;20056;-66
2022/10/25 04:30:59;;;;;;;11.07;3.33;;;10.90;58.10;;;;;;7355056;19;20013;-67
2022/10/25 04:33:29;;;;;;;6.65;3.05;;;10.90;57.90;;;;;;7362274;19;20007;-67
2022/10/25 04:36:01;;;;;;;6.57;3.22;;;10.90;57.70;;;;;;7358045;19;20030;-67
2022/10/25 04:38:31;;;;;;;6.90;2.95;;;10.90;57.60;;;;;;7379127;19;20029;-67
2022/10/25 04:41:02;;;;;;;9.40;3.03;;;10.80;57.40;;;;;;7354823;19;20013;-67
2022/10/25 04:43:32;;;;;;;8.40;3.45;;;10.80;57.50;;;;;;7360618;19;20006;-67
2022/10/25 04:46:02;;;;;;;7.55;2.97;;;10.80;57.50;;;;;;7364068;19;20014;-65
2022/10/25 04:48:32;;;;;;;7.85;3.20;;;10.70;57.60;;;;;;7365190;19;20030;-66
2022/10/25 04:51:04;;;;;;;8.35;2.90;;;10.70;57.70;;;;;;7363101;19;20014;-66
2022/10/25 04:53:34;;;;;;;5.68;3.10;;;10.70;57.30;;;;;;7390832;19;20018;-67
2022/10/25 04:56:06;;;;;;;5.65;2.80;;;10.70;57.20;;;;;;7365368;19;20007;-66
2022/10/25 04:58:36;;;;;;;6.93;3.05;;;10.70;57.30;;;;;;7360388;19;20469;-66
2022/10/25 05:01:08;;;;;;;5.82;3.28;;;10.70;57.60;;;;;;7362820;19;20438;-66
2022/10/25 05:03:39;;;;;;;4.68;2.80;;;10.70;57.70;;;;;;7368385;19;20029;-66
2022/10/25 05:06:14;;;;;;;7.72;3.15;;;10.70;57.90;;;;;;7364753;19;20019;-66
2022/10/25 05:08:45;;;;;;;6.03;2.80;;;10.60;57.80;;;;;;7382393;19;20021;-66
2022/10/25 05:11:17;;;;;;;6.35;3.20;;;10.60;58.10;;;;;;7362110;19;20033;-67
2022/10/25 05:13:47;;;;;;;5.82;2.97;;;10.70;58.10;;;;;;7366972;19;20055;-66
2022/10/25 05:16:20;;;;;;;5.20;3.08;;;10.60;58.00;;;;;;7363889;19;20014;-66
2022/10/25 05:18:53;;;;;;;6.65;3.28;;;10.60;58.10;;;;;;7359559;19;20020;-67
2022/10/25 05:21:29;;;;;;;7.40;3.15;;;10.70;58.40;;;;;;7362891;19;20010;-66
2022/10/25 05:24:00;;;;;;;3.83;2.65;;;10.70;58.70;;;;;;7366519;19;20014;-66
2022/10/25 05:26:31;;;;;;;6.65;2.80;;;10.70;58.30;;;;;;7382858;19;20085;-67
2022/10/25 05:29:01;;;;;;;5.10;2.42;;;10.70;58.30;;;;;;7359684;19;20018;-67
2022/10/25 05:31:37;;;;;;;6.88;2.92;;;10.80;58.40;;;;;;7365954;19;20501;-65
2022/10/25 05:34:07;;;;;;;5.40;2.92;;;10.70;58.20;;;;;;7366184;19;20012;-67
2022/10/25 05:36:39;;;;;;;6.32;3.13;;;10.80;58.30;;;;;;7361540;19;20014;-66
2022/10/25 05:39:09;;;;;;;7.53;3.05;;;10.90;58.50;;;;;;7365558;19;20017;-66
2022/10/25 05:41:39;;;;;;;8.13;3.00;;;10.90;58.30;;;;;;7388058;19;20022;-66
2022/10/25 05:44:09;;;;;;;8.88;2.75;;;10.90;58.40;;;;;;7365731;19;20291;-65
2022/10/25 05:46:39;;;;;;;10.07;3.05;;;10.90;58.20;;;;;;7363531;19;20027;-66
2022/10/25 05:49:08;;;;;;;6.65;3.33;;;10.90;58.00;;;;;;7357758;19;20498;-67
2022/10/25 05:51:41;;;;;;;10.18;3.22;;;10.90;57.90;;;;;;7364306;19;20070;-66
2022/10/25 05:54:13;;;;;;;8.00;3.30;;;10.90;57.50;;;;;;7364803;19;20022;-65
2022/10/25 05:56:44;;;;;;;6.78;3.05;;;10.90;58.00;;;;;;7381782;19;20561;-65
2022/10/25 05:59:15;;;;;;;7.68;3.72;;;10.90;57.50;;;;;;7358413;19;20034;-66
2022/10/25 06:01:46;;;;;;;7.07;3.67;;;10.80;57.30;;;;;;7362677;19;20011;-65
2022/10/25 06:04:17;;;;;;;6.07;2.83;;;10.90;57.30;;;;;;7363721;19;20015;-67
2022/10/25 06:06:51;;;;;;;5.28;3.45;;;10.90;56.90;;;;;;7364238;19;20015;-65
2022/10/25 06:09:20;;;;;;;7.10;3.20;;;10.90;56.80;;;;;;7357086;19;20020;-66
2022/10/25 06:11:50;;;;;;;7.20;3.22;;;10.90;56.60;;;;;;7359366;19;20015;-67
2022/10/25 06:14:20;;;;;;;3.97;2.50;;;10.90;56.60;;;;;;7383450;19;20006;-66
2022/10/25 06:16:50;;;;;;;9.07;3.22;;;10.90;56.40;;;;;;7362006;19;20045;-65
2022/10/25 06:19:19;;;;;;;11.10;3.80;;;10.90;56.30;;;;;;7356956;19;20482;-66
2022/10/25 06:21:52;;;;;;;7.55;3.22;;;10.90;56.40;;;;;;7363373;19;20014;-67
2022/10/25 06:24:22;;;;;;;10.25;3.78;;;10.90;56.30;;;;;;7364133;19;20466;-65
2022/10/25 06:26:52;;;;;;;9.70;3.35;;;11.00;56.50;;;;;;7360819;19;20030;-67
2022/10/25 06:29:21;;;;;;;7.68;3.03;;;11.00;56.30;;;;;;7377233;19;20498;-67
2022/10/25 06:31:51;;;;;;;10.40;3.50;;;11.00;56.10;;;;;;7362122;19;20470;-66
2022/10/25 06:34:21;;;;;;;9.18;3.92;;;11.00;56.20;;;;;;7362896;19;20769;-66
2022/10/25 06:36:53;;;;;;;7.72;3.67;;;11.00;56.10;;;;;;7362532;19;20011;-66
2022/10/25 06:39:23;;;;;;;8.90;4.20;;;10.70;54.60;;;;;;7356620;19;20450;-66
2022/10/25 06:41:53;;;;;;;7.50;4.05;;;10.60;55.70;;;;;;7362619;19;20488;-66
2022/10/25 06:44:22;;;;;;;11.35;4.30;;;10.50;56.30;;;;;;7383841;19;20010;-66
2022/10/25 06:46:53;;;;;;;10.02;4.43;;;10.50;56.70;;;;;;7361413;19;20458;-65
2022/10/25 06:49:42;;;;;;;10.15;4.25;;;10.60;57.90;;;;;;7351141;19;20026;-66
2022/10/25 06:52:15;;;;;;;10.40;4.43;;;10.60;57.90;;;;;;7366523;19;20030;-66
2022/10/25 06:54:44;;;;;;;5.57;4.10;;;10.70;58.10;;;;;;7362063;19;20481;-66
2022/10/25 06:57:14;;;;;;;14.30;4.60;;;10.70;58.10;;;;;;7361748;19;20577;-67
2022/10/25 06:59:44;;;;;;;8.43;4.55;;;10.80;58.30;;;;;;7374241;19;20007;-66
2022/10/25 07:02:14;;;;;;;14.77;5.45;;;10.80;58.40;;;;;;7365008;19;20778;-67
2022/10/25 07:04:44;;;;;;;12.98;5.35;;;10.90;58.70;;;;;;7360525;19;20657;-67
2022/10/25 07:07:16;;;;;;;10.70;4.90;;;11.10;58.70;;;;;;7359662;19;20006;-65
2022/10/25 07:09:46;;;;;;;8.90;4.35;;;11.20;58.50;;;;;;7350805;19;20489;-66
2022/10/25 07:12:16;;;;;;;14.63;5.28;;;11.30;58.20;;;;;;7364993;19;20007;-66
2022/10/25 07:14:46;;;;;;;28.35;15.20;;;11.40;57.60;;;;;;7377816;19;20802;-66
2022/10/25 07:17:16;;;;;;;10.13;5.05;;;11.50;57.20;;;;;;7383421;19;20014;-66
2022/10/25 07:19:46;;;;;;;10.05;4.22;;;11.60;57.50;;;;;;7351878;19;20010;-66
2022/10/25 07:22:18;;;;;;;12.07;3.55;;;11.70;56.40;;;;;;7365291;19;20051;-67
2022/10/25 07:24:48;;;;;;;7.00;4.22;;;11.80;55.10;;;;;;7362140;19;20007;-66
2022/10/25 07:27:18;;;;;;;8.63;3.90;;;11.80;53.40;;;;;;7360703;19;20138;-65
2022/10/25 07:29:48;;;;;;;13.25;3.47;;;11.90;53.10;;;;;;7352976;19;20010;-67
2022/10/25 07:32:18;;;;;;;9.27;3.90;;;11.90;51.70;;;;;;7385810;19;20054;-66
2022/10/25 07:34:47;;;;;;;6.55;3.45;;;12.00;50.30;;;;;;7361705;19;20014;-65
2022/10/25 07:37:20;;;;;;;7.57;3.53;;;12.10;49.20;;;;;;7360777;19;20018;-66
2022/10/25 07:39:49;;;;;;;6.97;3.78;;;12.30;48.90;;;;;;7351232;19;20038;-66
2022/10/25 07:42:19;;;;;;;8.07;3.67;;;12.50;46.40;;;;;;7361308;19;20034;-67
2022/10/25 07:44:49;;;;;;;9.20;3.65;;;12.60;45.50;;;;;;7359115;19;20042;-67
2022/10/25 07:47:19;;;;;;;9.63;3.90;;;12.70;43.90;;;;;;7378918;19;20018;-66
2022/10/25 07:49:49;;;;;;;7.65;3.72;;;12.80;43.70;;;;;;7349939;19;20026;-66
2022/10/25 07:52:21;;;;;;;8.35;3.88;;;12.90;41.90;;;;;;7361138;19;20010;-66
2022/10/25 07:54:51;;;;;;;6.38;3.40;;;13.00;41.20;;;;;;7359011;19;20007;-67
2022/10/25 07:57:21;;;;;;;8.88;3.33;;;13.00;39.70;;;;;;7359092;19;20010;-65
2022/10/25 07:59:50;;;;;;;7.32;3.63;;;13.10;40.30;;;;;;7348996;19;20010;-67
2022/10/25 08:02:20;;;;;;;13.95;3.50;;;13.20;39.80;;;;;;7381731;19;20015;-66
2022/10/25 08:04:54;;;;;;;8.07;3.90;;;13.30;40.00;;;;;;7356312;19;20011;-66
2022/10/25 08:07:27;;;;;;;9.70;3.25;;;13.30;39.50;;;;;;7356235;19;20159;-67
2022/10/25 08:09:56;;;;;;;6.05;2.67;;;13.40;39.00;;;;;;7351646;19;20034;-66
2022/10/25 08:12:26;;;;;;;6.50;3.15;;;13.50;38.30;;;;;;7361330;19;20192;-66
2022/10/25 08:14:56;;;;;;;5.43;2.83;;;13.50;37.80;;;;;;7360002;19;20037;-66
2022/10/25 08:17:26;;;;;;;7.68;2.60;;;13.60;36.90;;;;;;7377569;19;20078;-66
2022/10/25 08:19:56;;;;;;;9.27;3.08;;;13.70;36.00;;;;;;7350995;19;20022;-66
2022/10/25 08:22:28;;;;;;;6.43;2.70;;;13.70;36.00;;;;;;7360363;19;20031;-66
2022/10/25 08:24:59;;;;;;;4.45;2.08;;;13.80;34.90;;;;;;7358214;19;20776;-67
2022/10/25 08:27:29;;;;;;;30.92;20.13;;;13.90;34.10;;;;;;7355924;19;20010;-65
2022/10/25 08:29:59;;;;;;;15.25;2.80;;;14.00;33.90;;;;;;7351986;19;20042;-66
2022/10/25 08:32:30;;;;;;;5.97;2.63;;;14.00;32.70;;;;;;7381366;19;20018;-66
2022/10/25 08:35:00;;;;;;;14.18;3.22;;;14.10;32.00;;;;;;7357476;19;20024;-66
2022/10/25 08:37:33;;;;;;;8.07;2.13;;;14.20;31.50;;;;;;7354991;19;20015;-66
2022/10/25 08:40:02;;;;;;;6.95;2.05;;;14.30;30.20;;;;;;7352831;19;20010;-66
2022/10/25 08:42:52;;;;;;;9.07;2.85;;;14.40;28.50;;;;;;7360794;19;20025;-66
2022/10/25 08:45:26;;;;;;;5.15;2.28;;;14.60;28.20;;;;;;7357214;19;20510;-66
2022/10/25 08:47:58;;;;;;;;;;;14.60;27.40;;;;;;7353642;19;20516;-67
2022/10/25 08:50:37;;;;;;;6.05;2.25;;;14.80;26.90;;;;;;7366678;19;19934;-66
2022/10/25 08:53:17;;;;;;;5.80;2.33;;;14.90;25.40;;;;;;7351191;19;20077;-67
2022/10/25 08:55:49;;;;;;;6.57;2.15;;;14.90;22.60;;;;;;7348162;19;20010;-66
2022/10/25 08:58:45;;;;;;;5.13;2.10;;;15.10;21.00;;;;;;7339042;19;20017;-66
2022/10/25 09:01:17;;;;;;;7.13;1.85;;;15.30;20.60;;;;;;7346335;19;20126;-66
2022/10/25 09:03:47;;;;;;;4.53;1.70;;;15.30;19.60;;;;;;7350428;19;20018;-66
2022/10/25 09:06:24;;;;;;;6.00;1.90;;;15.40;18.70;;;;;;7347694;19;20018;-65
2022/10/25 09:09:09;;;;;;;3.45;1.55;;;15.50;18.60;;;;;;7340781;19;20368;-65
2022/10/25 09:11:50;;;;;;;5.82;1.58;;;15.60;17.90;;;;;;7369517;19;20011;-66
2022/10/25 09:14:32;;;;;;;5.57;1.60;;;15.60;16.00;;;;;;7348955;19;20015;-67
2022/10/25 09:17:12;;;;;;;5.90;1.88;;;15.80;16.00;;;;;;7344903;19;20518;-66
2022/10/25 09:19:58;;;;;;;6.53;1.40;;;15.80;15.10;;;;;;7337839;19;20086;-66
2022/10/25 09:22:30;;;;;;;4.32;1.50;;;15.90;15.50;;;;;;7350893;19;20015;-66
2022/10/25 09:25:15;;;;;;;3.15;1.58;;;16.10;11.90;;;;;;7347661;19;20011;-66
2022/10/25 09:27:55;;;;;;;3.72;1.70;;;16.10;11.90;;;;;;7343418;19;21033;-67
2022/10/25 09:30:25;;;;;;;4.45;1.60;;;16.20;12.10;;;;;;7340614;19;20481;-67
2022/10/25 09:32:58;;;;;;;4.38;1.50;;;16.20;12.00;;;;;;7354075;19;20744;-66
2022/10/25 09:35:32;;;;;;;5.15;1.52;;;16.30;10.00;;;;;;7377137;19;20021;-66
2022/10/25 09:38:09;;;;;;;10.80;4.50;;;16.20;9.50;;;;;;7347743;19;20047;-66
2022/10/25 09:40:47;;;;;;;7.75;2.50;;;16.30;9.10;;;;;;7352301;19;20025;-66
2022/10/25 09:43:24;;;;;;;5.20;1.75;;;16.30;10.40;;;;;;7356137;19;20019;-65
2022/10/25 09:45:58;;;;;;;7.03;1.90;;;16.30;11.00;;;;;;7352134;19;20014;-67
2022/10/25 09:48:34;;;;;;;4.40;1.65;;;16.30;11.40;;;;;;7342394;19;20029;-67
2022/10/25 09:51:13;;;;;;;7.50;2.05;;;16.30;8.60;;;;;;7352213;19;20018;-65
2022/10/25 09:53:46;;;;;;;7.28;2.10;;;16.40;8.40;;;;;;7375708;19;20014;-66
2022/10/25 09:56:19;;;;;;;5.10;1.67;;;16.30;10.80;;;;;;7351837;19;20664;-65
2022/10/25 09:58:49;;;;;;;4.85;1.50;;;16.50;9.20;;;;;;7345843;19;20006;-67
2022/10/25 10:01:22;;;;;;;5.35;1.35;;;16.60;7.20;;;;;;7350755;19;20014;-65
2022/10/25 10:03:52;;;;;;;5.73;1.83;;;16.60;5.80;;;;;;7354934;19;20114;-66
2022/10/25 10:06:29;;;;;;;5.90;1.58;;;16.60;4.80;;;;;;7353037;19;20412;-67
2022/10/25 10:09:02;;;;;;;2.35;1.10;;;16.60;5.00;;;;;;7343081;19;20042;-66
2022/10/25 10:11:36;;;;;;;2.80;1.30;;;16.80;4.10;;;;;;7368652;19;20067;-65
2022/10/25 10:14:13;;;;;;;5.70;1.90;;;17.10;3.30;;;;;;7349757;19;20021;-66
2022/10/25 10:16:46;;;;;;;3.83;1.38;;;17.30;2.10;;;;;;7350382;19;20025;-65
2022/10/25 10:19:18;;;;;;;8.48;1.48;;;17.60;1.00;;;;;;7349901;19;20281;-66
2022/10/25 10:21:51;;;;;;;9.15;1.40;;;17.60;1.00;;;;;;7354844;19;20017;-66
2022/10/25 10:24:24;;;;;;;5.60;1.38;;;17.60;1.00;;;;;;7353632;19;20123;-66
2022/10/25 10:26:58;;;;;;;7.82;1.88;;;17.60;1.00;;;;;;7350298;19;20029;-66
2022/10/25 10:29:30;;;;;;;4.95;1.23;;;17.70;1.00;;;;;;7364947;19;20303;-66
2022/10/25 10:32:04;;;;;;;4.45;1.48;;;17.60;1.00;;;;;;7352460;19;20011;-66
2022/10/25 10:34:36;;;;;;;3.17;1.20;;;17.40;1.00;;;;;;7354576;19;20014;-70
2022/10/25 10:37:14;;;;;;;4.07;1.23;;;17.00;1.00;;;;;;7353089;19;20018;-67
2022/10/25 10:39:53;;;;;;;5.30;1.63;;;17.00;1.00;;;;;;7341869;19;20730;-67
2022/10/25 10:42:33;;;;;;;5.47;1.63;;;16.90;1.00;;;;;;7351264;19;20025;-67
2022/10/25 10:45:14;;;;;;;5.10;1.30;;;16.80;1.00;;;;;;7352255;19;20554;-67
2022/10/25 10:47:47;;;;;;;3.67;1.50;;;16.70;1.00;;;;;;7365071;19;20071;-67
2022/10/25 10:50:27;;;;;;;6.47;1.70;;;16.40;3.50;;;;;;7347561;19;20014;-68
2022/10/25 10:53:00;;;;;;;4.30;1.80;;;16.30;5.40;;;;;;7349910;19;20379;-67
2022/10/25 10:55:33;;;;;;;4.63;1.90;;;16.10;7.70;;;;;;7351542;19;20010;-68
2022/10/25 10:58:08;;;;;;;4.63;1.98;;;16.00;9.20;;;;;;7341383;19;20029;-67
2022/10/25 11:00:41;;;;;;;5.88;1.65;;;16.00;10.50;;;;;;7349385;19;20613;-67
2022/10/25 11:03:40;;;;;;;5.68;1.90;;;15.90;11.80;;;;;;7351375;19;20033;-68
2022/10/25 11:06:29;;;;;;;6.80;1.85;;;16.00;12.80;;;;;;7349229;19;20359;-67
2022/10/25 11:09:18;;;;;;;4.95;1.88;;;15.90;13.40;;;;;;7335648;19;20025;-67
2022/10/25 11:12:07;;;;;;;5.75;2.00;;;15.80;14.10;;;;;;7350779;19;20620;-67
2022/10/25 11:14:39;;;;;;;5.85;1.90;;;16.10;11.30;;;;;;7371395;19;20565;-68
2022/10/25 11:17:16;;;;;;;3.50;1.48;;;16.40;10.30;;;;;;7349261;19;20007;-66
2022/10/25 11:20:04;;;;;;;4.35;1.95;;;16.60;8.40;;;;;;7340212;19;20014;-66
2022/10/25 11:22:58;;;;;;;7.60;1.77;;;16.80;5.00;;;;;;7349655;19;20411;-67
2022/10/25 11:25:38;;;;;;;3.20;1.45;;;16.70;4.90;;;;;;7341286;19;20015;-66
2022/10/25 11:28:30;;;;;;;7.57;1.42;;;16.60;4.20;;;;;;7339880;19;20011;-68
2022/10/25 11:31:12;;;;;;;4.63;1.67;;;16.60;4.10;;;;;;7351449;19;20180;-68
2022/10/25 11:34:04;;;;;;;3.28;1.48;;;16.60;2.50;;;;;;7353653;19;20088;-68
2022/10/25 11:36:49;;;;;;;4.50;1.65;;;16.90;1.00;;;;;;7349897;19;20070;-69
2022/10/25 11:39:33;;;;;;;3.80;1.58;;;16.90;1.20;;;;;;7340576;19;20034;-69
2022/10/25 11:42:17;;;;;;;5.10;1.40;;;17.20;1.00;;;;;;7348798;19;20114;-69
2022/10/25 11:45:15;;;;;;;5.15;1.60;;;17.00;1.00;;;;;;7354159;19;20033;-68
2022/10/25 11:48:00;;;;;;;2.63;1.20;;;16.90;1.00;;;;;;7365241;19;20045;-69
2022/10/25 11:50:35;;;;;;;3.30;1.20;;;16.70;1.00;;;;;;7344435;19;20470;-66
2022/10/25 11:53:27;;;;;;;3.00;1.00;;;16.70;1.00;;;;;;7350457;19;20007;-68
2022/10/25 11:56:02;;;;;;;4.00;1.15;;;16.80;1.00;;;;;;7349790;19;20042;-69
2022/10/25 11:58:36;;;;;;;;;;;16.90;1.00;;;;;;7339725;19;20571;-67
2022/10/25 12:01:16;;;;;;;3.83;1.58;;;16.90;1.00;;;;;;7348461;19;19918;-68
2022/10/25 12:04:31;;;;;;;6.25;1.58;;;17.00;1.00;;;;;;7353842;19;20014;-67
2022/10/25 12:07:10;;;;;;;1.85;1.17;;;17.10;1.00;;;;;;7350729;19;20035;-68
2022/10/25 12:09:49;;;;;;;4.28;1.77;;;17.30;1.00;;;;;;7333638;19;20022;-68
2022/10/25 12:12:21;;;;;;;3.10;1.10;;;17.20;1.00;;;;;;7348355;19;20469;-68
2022/10/25 12:14:54;;;;;;;5.90;1.38;;;17.40;1.00;;;;;;7350817;19;20021;-69
2022/10/25 12:17:28;;;;;;;3.78;1.23;;;17.30;1.00;;;;;;7372261;19;20042;-68
2022/10/25 12:20:03;;;;;;;17.00;9.27;;;17.20;1.00;;;;;;7345192;19;20016;-68
2022/10/25 12:22:38;;;;;;;3.65;1.77;;;17.10;1.00;;;;;;7349539;19;20006;-68
2022/10/25 12:25:16;;;;;;;3.45;1.20;;;17.20;1.00;;;;;;7349324;19;20018;-69
2022/10/25 12:27:49;;;;;;;4.28;1.67;;;17.50;1.00;;;;;;7343552;19;20388;-67
2022/10/25 12:30:25;;;;;;;3.55;1.30;;;17.60;1.00;;;;;;7345279;19;20010;-69
2022/10/25 12:33:22;;;;;;;3.33;1.23;;;17.70;1.00;;;;;;7353082;19;20137;-68
2022/10/25 12:36:00;;;;;;;2.05;1.13;;;17.60;1.00;;;;;;7349935;19;20019;-67
2022/10/25 12:38:36;;;;;;;5.53;1.45;;;17.70;1.00;;;;;;7360214;19;20011;-68
2022/10/25 12:41:11;;;;;;;5.22;1.38;;;17.80;1.00;;;;;;7349316;19;20007;-68
2022/10/25 12:43:50;;;;;;;6.72;1.40;;;17.70;1.00;;;;;;7351763;19;20024;-68
2022/10/25 12:47:01;;;;;;;2.50;1.00;;;17.70;1.00;;;;;;7349691;19;20451;-69
2022/10/25 12:49:46;;;;;;;4.28;1.08;;;17.80;1.00;;;;;;7338005;19;20011;-69
2022/10/25 12:52:35;;;;;;;2.78;1.20;;;17.70;1.00;;;;;;7349082;19;20014;-68
2022/10/25 12:55:36;;;;;;;4.53;1.23;;;17.50;1.00;;;;;;7349232;19;20835;-67
2022/10/25 12:58:26;;;;;;;5.30;1.30;;;17.60;1.00;;;;;;7340515;19;20006;-68
2022/10/25 13:01:12;;;;;;;5.05;1.50;;;17.80;1.00;;;;;;7349861;19;20244;-69
2022/10/25 13:03:58;;;;;;;8.07;1.75;;;17.70;1.00;;;;;;7349699;19;20332;-68
2022/10/25 13:06:33;;;;;;;6.75;1.30;;;17.70;1.00;;;;;;7349088;19;20010;-67
2022/10/25 13:09:09;;;;;;;6.93;1.48;;;17.80;1.00;;;;;;7344921;19;20021;-68
2022/10/25 13:11:42;;;;;;;6.40;1.33;;;18.00;1.00;;;;;;7377760;19;20115;-69
2022/10/25 13:14:23;;;;;;;2.90;1.23;;;18.10;1.00;;;;;;7357095;19;20232;-68
2022/10/25 13:16:53;;;;;;;6.22;1.20;;;18.00;1.00;;;;;;7356094;19;20015;-67
2022/10/25 13:19:29;;;;;;;4.45;1.80;;;18.10;1.00;;;;;;7346323;19;20608;-69
2022/10/25 13:22:39;;;;;;;3.38;1.30;;;18.00;1.00;;;;;;7355425;19;20046;-68
2022/10/25 13:25:40;;;;;;;5.75;0.98;;;18.00;1.00;;;;;;7357505;19;20010;-68
2022/10/25 13:28:31;;;;;;;4.90;1.17;;;17.80;1.00;;;;;;7343718;19;20007;-68